Time;durP1;ratioP1;P1;durP2;ratioP2;P2;SDS_P1;SDS_P2;PMS_P1;PMS_P2;Temp;Humidity;BMP_temperature;BMP_pressure;BME280_temperature;BME280_humidity;BME280_pressure;Samples;Min_cycle;Max_cycle;Signal;HPM_P1;HPM_P2
2024/02/01 00:01:26;;;;;;;21.87;20.03;;;;;;;;;;5060994;28;20454;-79
2024/02/01 00:03:53;;;;;;;23.53;21.87;;;;;;;;;;5073463;28;20470;-79
2024/02/01 00:06:20;;;;;;;27.07;24.90;;;;;;;;;;5080451;28;20570;-81
2024/02/01 00:08:48;;;;;;;26.70;24.60;;;;;;;;;;5081619;28;20454;-80
2024/02/01 00:11:17;;;;;;;25.97;23.97;;;;;;;;;;5068526;28;20446;-79
2024/02/01 00:13:44;;;;;;;25.43;23.03;;;;;;;;;;5061511;28;20455;-80
2024/02/01 00:16:12;;;;;;;23.83;21.80;;;;;;;;;;5061516;28;20462;-78
2024/02/01 00:18:39;;;;;;;24.13;22.43;;;;;;;;;;5071775;28;20429;-80
2024/02/01 00:21:06;;;;;;;29.10;26.73;;;;;;;;;;5081270;28;20508;-79
2024/02/01 00:23:34;;;;;;;28.93;26.47;;;;;;;;;;5081276;28;21020;-80
2024/02/01 00:26:01;;;;;;;31.57;28.60;;;;;;;;;;5081093;28;20480;-80
2024/02/01 00:28:29;;;;;;;27.50;24.90;;;;;;;;;;5065868;28;20458;-79
2024/02/01 00:30:57;;;;;;;29.47;27.17;;;;;;;;;;5061520;28;20467;-79
2024/02/01 00:33:24;;;;;;;27.63;25.00;;;;;;;;;;5061645;28;20857;-81
2024/02/01 00:35:51;;;;;;;28.00;25.70;;;;;;;;;;5061670;28;20467;-79
2024/02/01 00:38:18;;;;;;;28.50;25.90;;;;;;;;;;5061306;28;20472;-81
2024/02/01 00:40:45;;;;;;;28.63;26.37;;;;;;;;;;5062210;28;20470;-80
2024/02/01 00:43:12;;;;;;;26.07;24.07;;;;;;;;;;5062069;28;21103;-79
2024/02/01 00:45:40;;;;;;;26.60;24.37;;;;;;;;;;5061176;28;20858;-79
2024/02/01 00:48:08;;;;;;;32.27;29.27;;;;;;;;;;5061473;28;20481;-79
2024/02/01 00:50:35;;;;;;;25.83;23.60;;;;;;;;;;5078009;28;20470;-79
2024/02/01 00:53:02;;;;;;;24.37;22.87;;;;;;;;;;5082239;28;20784;-81
2024/02/01 00:55:29;;;;;;;26.63;24.23;;;;;;;;;;5081181;28;20478;-79
2024/02/01 00:57:57;;;;;;;32.40;29.80;;;;;;;;;;5081976;28;20913;-79
2024/02/01 01:00:24;;;;;;;35.37;32.17;;;;;;;;;;5082487;28;20462;-81
2024/02/01 01:02:52;;;;;;;30.07;27.77;;;;;;;;;;5082464;28;20852;-81
2024/02/01 01:05:19;;;;;;;39.37;35.80;;;;;;;;;;5080571;28;20461;-81
2024/02/01 01:07:46;;;;;;;40.13;36.80;;;;;;;;;;5073020;28;20450;-79
2024/02/01 01:10:15;;;;;;;43.17;39.40;;;;;;;;;;5061835;28;20467;-81
2024/02/01 01:12:43;;;;;;;44.80;41.20;;;;;;;;;;5061986;28;20454;-81
2024/02/01 01:15:10;;;;;;;43.30;39.90;;;;;;;;;;5061449;28;20543;-80
2024/02/01 01:17:38;;;;;;;43.43;39.83;;;;;;;;;;5060554;28;20454;-80
2024/02/01 01:20:08;;;;;;;34.80;32.63;;;;;;;;;;5061829;28;20531;-82
2024/02/01 01:22:35;;;;;;;45.03;41.13;;;;;;;;;;5061488;28;20446;-81
2024/02/01 01:25:02;;;;;;;45.73;42.03;;;;;;;;;;5070512;28;20432;-81
2024/02/01 01:27:29;;;;;;;46.77;43.20;;;;;;;;;;5080899;28;20547;-81
2024/02/01 01:29:57;;;;;;;46.87;43.17;;;;;;;;;;5081471;28;20476;-80
2024/02/01 01:32:24;;;;;;;46.50;42.17;;;;;;;;;;5081277;28;20472;-80
2024/02/01 01:34:51;;;;;;;49.40;45.00;;;;;;;;;;5081203;28;20852;-81
2024/02/01 01:37:19;;;;;;;45.07;41.07;;;;;;;;;;5069804;28;20482;-81
2024/02/01 01:39:46;;;;;;;49.15;45.05;;;;;;;;;;5060488;28;20462;-81
2024/02/01 01:42:16;;;;;;;46.77;43.07;;;;;;;;;;5061416;28;20239;-79
2024/02/01 01:44:43;;;;;;;46.73;42.77;;;;;;;;;;5062310;28;20454;-81
2024/02/01 01:47:10;;;;;;;49.17;44.77;;;;;;;;;;5060575;28;20525;-82
2024/02/01 01:49:38;;;;;;;47.20;43.50;;;;;;;;;;5061688;28;20466;-80
2024/02/01 01:52:05;;;;;;;43.17;39.77;;;;;;;;;;5061008;28;20502;-80
2024/02/01 01:54:35;;;;;;;54.80;50.40;;;;;;;;;;5060916;28;20923;-81
2024/02/01 01:57:03;;;;;;;46.90;43.10;;;;;;;;;;5064433;28;20589;-81
2024/02/01 01:59:30;;;;;;;51.73;47.57;;;;;;;;;;5060268;28;20532;-79
2024/02/01 02:01:57;;;;;;;54.17;49.80;;;;;;;;;;5060114;28;20473;-81
2024/02/01 02:04:24;;;;;;;53.73;49.50;;;;;;;;;;5060918;28;20931;-80
2024/02/01 02:06:55;;;;;;;53.03;48.20;;;;;;;;;;5060273;28;20509;-81
2024/02/01 02:09:23;;;;;;;57.60;52.90;;;;;;;;;;5060975;28;20478;-81
2024/02/01 02:11:51;;;;;;;58.57;53.70;;;;;;;;;;5060901;28;20441;-80
2024/02/01 02:14:19;;;;;;;58.60;53.80;;;;;;;;;;5066928;28;20468;-82
2024/02/01 02:16:46;;;;;;;60.67;55.37;;;;;;;;;;5078819;28;20507;-82
2024/02/01 02:19:13;;;;;;;58.57;53.93;;;;;;;;;;5080571;28;20489;-81
2024/02/01 02:21:46;;;;;;;59.23;54.07;;;;;;;;;;5081123;28;20449;-80
2024/02/01 02:24:14;;;;;;;60.70;55.90;;;;;;;;;;5081296;28;20487;-79
2024/02/01 02:26:41;;;;;;;60.35;54.97;;;;;;;;;;5078689;28;20595;-80
2024/02/01 02:29:08;;;;;;;60.17;54.87;;;;;;;;;;5064904;28;20272;-81
2024/02/01 02:31:37;;;;;;;63.83;57.27;;;;;;;;;;5061230;28;20457;-80
2024/02/01 02:34:04;;;;;;;56.27;51.10;;;;;;;;;;5060869;28;20453;-80
2024/02/01 02:36:33;;;;;;;62.60;56.50;;;;;;;;;;5059668;28;20442;-80
2024/02/01 02:39:01;;;;;;;61.80;56.00;;;;;;;;;;5060033;28;20486;-80
2024/02/01 02:41:28;;;;;;;66.17;60.20;;;;;;;;;;5059943;28;20500;-81
2024/02/01 02:43:58;;;;;;;65.73;59.83;;;;;;;;;;5060303;28;20804;-81
2024/02/01 02:46:25;;;;;;;66.77;60.10;;;;;;;;;;5059648;28;20534;-80
2024/02/01 02:48:52;;;;;;;65.90;60.10;;;;;;;;;;5063987;28;20532;-81
2024/02/01 02:51:20;;;;;;;53.57;49.27;;;;;;;;;;5060816;28;20445;-80
2024/02/01 02:53:48;;;;;;;64.80;59.00;;;;;;;;;;5060451;28;20446;-80
2024/02/01 02:56:19;;;;;;;65.63;59.73;;;;;;;;;;5059552;28;20446;-80
2024/02/01 02:58:47;;;;;;;70.57;64.47;;;;;;;;;;5060605;28;20557;-81
2024/02/01 03:01:15;;;;;;;55.37;51.07;;;;;;;;;;5059850;28;20500;-81
2024/02/01 03:03:44;;;;;;;63.97;58.17;;;;;;;;;;5059428;28;20482;-80
2024/02/01 03:06:11;;;;;;;62.07;56.27;;;;;;;;;;5060124;28;20413;-81
2024/02/01 03:08:43;;;;;;;58.70;55.07;;;;;;;;;;5073402;28;20446;-80
2024/02/01 03:11:11;;;;;;;83.60;77.37;;;;;;;;;;5060545;28;20479;-79
2024/02/01 03:13:40;;;;;;;84.07;77.77;;;;;;;;;;5060697;28;20897;-81
2024/02/01 03:16:07;;;;;;;74.70;69.90;;;;;;;;;;5059715;28;20449;-81
2024/02/01 03:18:35;;;;;;;89.93;82.85;;;;;;;;;;5064173;28;20490;-81
2024/02/01 03:21:03;;;;;;;92.10;84.80;;;;;;;;;;5080552;28;20655;-81
2024/02/01 03:23:34;;;;;;;84.40;77.82;;;;;;;;;;5080737;28;20438;-80
2024/02/01 03:26:01;;;;;;;89.40;82.87;;;;;;;;;;5080779;28;20203;-80
2024/02/01 03:28:30;;;;;;;88.97;82.77;;;;;;;;;;5083796;28;20438;-80
2024/02/01 03:30:59;;;;;;;89.80;83.23;;;;;;;;;;5083512;28;20481;-80
2024/02/01 03:33:26;;;;;;;95.53;88.43;;;;;;;;;;5084641;28;20446;-80
2024/02/01 03:35:53;;;;;;;89.23;83.13;;;;;;;;;;5084910;28;20446;-79
2024/02/01 03:38:21;;;;;;;79.07;73.97;;;;;;;;;;5078849;28;21156;-80
2024/02/01 03:40:48;;;;;;;94.27;86.27;;;;;;;;;;5063329;28;20960;-81
2024/02/01 03:43:15;;;;;;;90.40;83.57;;;;;;;;;;5070044;28;20486;-80
2024/02/01 03:45:48;;;;;;;96.23;88.60;;;;;;;;;;5066024;28;20468;-81
2024/02/01 03:48:18;;;;;;;81.50;76.20;;;;;;;;;;5065490;28;20549;-79
2024/02/01 03:50:45;;;;;;;84.87;78.87;;;;;;;;;;5062283;28;20487;-79
2024/02/01 03:53:12;;;;;;;85.27;79.27;;;;;;;;;;5063190;28;20469;-79
2024/02/01 03:55:40;;;;;;;89.20;82.80;;;;;;;;;;5062849;28;20827;-80
2024/02/01 03:58:08;;;;;;;93.33;86.33;;;;;;;;;;5062827;28;20512;-81
2024/02/01 04:00:35;;;;;;;97.53;89.70;;;;;;;;;;5062081;28;20465;-80
2024/02/01 04:03:04;;;;;;;96.73;89.73;;;;;;;;;;5062652;28;20461;-79
2024/02/01 04:05:37;;;;;;;91.83;85.40;;;;;;;;;;5062771;28;20454;-80
2024/02/01 04:08:07;;;;;;;95.57;88.63;;;;;;;;;;5062045;28;20515;-79
2024/02/01 04:10:34;;;;;;;87.43;81.43;;;;;;;;;;5063983;28;20962;-80
2024/02/01 04:13:01;;;;;;;94.23;87.33;;;;;;;;;;5063076;28;20441;-80
2024/02/01 04:15:29;;;;;;;96.10;89.50;;;;;;;;;;5062205;28;20466;-80
2024/02/01 04:17:57;;;;;;;94.90;88.60;;;;;;;;;;5063166;28;20466;-79
2024/02/01 04:20:25;;;;;;;98.97;92.07;;;;;;;;;;5061789;28;20523;-81
2024/02/01 04:22:54;;;;;;;79.80;75.00;;;;;;;;;;5061375;28;20466;-81
2024/02/01 04:25:23;;;;;;;96.33;89.93;;;;;;;;;;5061554;28;20446;-80
2024/02/01 04:27:50;;;;;;;96.93;89.73;;;;;;;;;;5061224;28;20820;-80
2024/02/01 04:30:18;;;;;;;91.67;85.33;;;;;;;;;;5062033;28;20521;-81
2024/02/01 04:32:45;;;;;;;100.80;93.20;;;;;;;;;;5062009;28;20835;-78
2024/02/01 04:35:13;;;;;;;95.03;88.10;;;;;;;;;;5062590;28;20458;-79
2024/02/01 04:37:40;;;;;;;85.53;80.40;;;;;;;;;;5061693;28;20421;-79
2024/02/01 04:40:10;;;;;;;100.27;92.83;;;;;;;;;;5060660;28;20528;-80
2024/02/01 04:42:39;;;;;;;84.43;78.30;;;;;;;;;;5060717;28;20466;-79
2024/02/01 04:45:08;;;;;;;82.93;77.07;;;;;;;;;;5061710;28;20433;-80
2024/02/01 04:47:39;;;;;;;83.63;77.27;;;;;;;;;;5060562;28;21131;-80
2024/02/01 04:50:06;;;;;;;83.20;77.00;;;;;;;;;;5061754;28;20490;-80
2024/02/01 04:52:36;;;;;;;70.37;65.63;;;;;;;;;;5061954;28;20547;-78
2024/02/01 04:55:03;;;;;;;77.23;72.37;;;;;;;;;;5061921;28;20454;-80
2024/02/01 04:57:32;;;;;;;73.47;69.17;;;;;;;;;;5060812;28;20447;-79
2024/02/01 04:59:59;;;;;;;87.37;81.57;;;;;;;;;;5060900;28;20512;-79
2024/02/01 05:02:26;;;;;;;84.60;79.00;;;;;;;;;;5061340;28;22344;-80
2024/02/01 05:04:54;;;;;;;80.60;75.20;;;;;;;;;;5061833;28;20450;-80
2024/02/01 05:07:21;;;;;;;78.80;73.50;;;;;;;;;;5060586;28;20530;-79
2024/02/01 05:09:48;;;;;;;84.57;78.63;;;;;;;;;;5061108;28;20475;-80
2024/02/01 05:12:16;;;;;;;82.60;76.20;;;;;;;;;;5061147;28;20467;-79
2024/02/01 05:14:46;;;;;;;88.73;82.63;;;;;;;;;;5061502;28;20860;-78
2024/02/01 05:17:14;;;;;;;78.43;72.77;;;;;;;;;;5061240;28;20451;-80
2024/02/01 05:19:42;;;;;;;77.30;72.00;;;;;;;;;;5060448;28;20497;-79
2024/02/01 05:22:09;;;;;;;76.23;71.23;;;;;;;;;;5059584;28;20526;-80
2024/02/01 05:24:36;;;;;;;80.73;75.57;;;;;;;;;;5060646;28;20888;-79
2024/02/01 05:27:07;;;;;;;82.13;76.27;;;;;;;;;;5058528;28;20470;-80
2024/02/01 05:29:35;;;;;;;80.53;75.27;;;;;;;;;;5060612;28;20473;-80
2024/02/01 05:32:06;;;;;;;80.57;75.27;;;;;;;;;;5064847;28;20503;-79
2024/02/01 05:34:33;;;;;;;81.77;76.27;;;;;;;;;;5080156;28;20465;-79
2024/02/01 05:37:00;;;;;;;77.67;72.67;;;;;;;;;;5080337;28;20445;-79
2024/02/01 05:39:28;;;;;;;81.47;76.00;;;;;;;;;;5081042;28;20469;-80
2024/02/01 05:41:56;;;;;;;84.10;78.10;;;;;;;;;;5081129;28;20446;-80
2024/02/01 05:44:24;;;;;;;83.63;78.03;;;;;;;;;;5080323;28;20470;-80
2024/02/01 05:46:53;;;;;;;87.70;81.70;;;;;;;;;;5062429;28;20442;-80
2024/02/01 05:49:24;;;;;;;83.03;77.43;;;;;;;;;;5068084;28;20479;-80
2024/02/01 05:51:52;;;;;;;81.30;75.50;;;;;;;;;;5066426;28;20519;-80
2024/02/01 05:54:21;;;;;;;84.07;78.07;;;;;;;;;;5059071;28;20818;-79
2024/02/01 05:56:48;;;;;;;83.83;77.97;;;;;;;;;;5059780;28;20521;-79
2024/02/01 05:59:16;;;;;;;82.47;76.90;;;;;;;;;;5060531;28;20516;-80
2024/02/01 06:01:44;;;;;;;81.13;75.77;;;;;;;;;;5059956;28;20541;-79
2024/02/01 06:04:11;;;;;;;81.57;75.97;;;;;;;;;;5060288;28;20425;-78
2024/02/01 06:06:40;;;;;;;80.60;74.80;;;;;;;;;;5058739;28;20832;-79
2024/02/01 06:09:10;;;;;;;75.00;69.80;;;;;;;;;;5059591;28;20490;-80
2024/02/01 06:11:37;;;;;;;81.23;75.60;;;;;;;;;;5059426;28;20454;-80
2024/02/01 06:14:04;;;;;;;80.33;74.90;;;;;;;;;;5058925;28;20453;-80
2024/02/01 06:16:31;;;;;;;75.83;70.30;;;;;;;;;;5057777;28;20815;-80
2024/02/01 06:18:58;;;;;;;79.40;74.20;;;;;;;;;;5058330;28;20472;-80
2024/02/01 06:21:25;;;;;;;75.93;70.83;;;;;;;;;;5059164;28;20835;-80
2024/02/01 06:23:54;;;;;;;80.03;73.83;;;;;;;;;;5060235;28;20520;-80
2024/02/01 06:26:25;;;;;;;79.57;73.97;;;;;;;;;;5062732;28;20487;-80
2024/02/01 06:28:53;;;;;;;78.10;72.57;;;;;;;;;;5058784;28;20474;-83
2024/02/01 06:31:20;;;;;;;76.57;71.23;;;;;;;;;;5056894;28;20454;-80
2024/02/01 06:33:50;;;;;;;74.43;69.67;;;;;;;;;;5059586;28;20486;-79
2024/02/01 06:36:19;;;;;;;73.17;68.77;;;;;;;;;;5074134;28;20477;-78
2024/02/01 06:39:06;;;;;;;74.60;69.20;;;;;;;;;;5079169;28;20837;-80
2024/02/01 06:42:01;;;;;;;64.10;60.30;;;;;;;;;;5073421;28;20490;-79
2024/02/01 06:44:28;;;;;;;67.97;63.40;;;;;;;;;;5067791;28;20938;-80
2024/02/01 06:47:11;;;;;;;66.93;62.80;;;;;;;;;;5058271;28;20450;-79
2024/02/01 06:52:35;;;;;;;65.38;61.13;;;;;;;;;;5078485;28;20411;-80
2024/02/01 06:55:24;;;;;;;63.40;58.83;;;;;;;;;;5079049;28;20306;-81
2024/02/01 06:58:13;;;;;;;65.70;61.00;;;;;;;;;;5077318;28;20472;-77
2024/02/01 07:01:01;;;;;;;62.70;59.00;;;;;;;;;;5071015;28;20470;-80
2024/02/01 07:03:51;;;;;;;65.03;61.03;;;;;;;;;;5059425;28;20424;-79
2024/02/01 07:06:39;;;;;;;63.73;58.57;;;;;;;;;;5059676;28;20189;-80
2024/02/01 07:12:09;;;;;;;49.13;46.10;;;;;;;;;;5080116;28;20471;-82
2024/02/01 07:14:39;;;;;;;46.27;42.80;;;;;;;;;;5076766;28;20461;-79
2024/02/01 07:19:56;;;;;;;43.97;41.30;;;;;;;;;;5062815;28;20507;-79
2024/02/01 07:22:38;;;;;;;49.83;45.60;;;;;;;;;;5064574;28;20212;-79
2024/02/01 07:25:23;;;;;;;53.27;50.20;;;;;;;;;;5058995;28;20436;-79
2024/02/01 07:58:10;;;;;;;52.13;47.87;;;;;;;;;;5070828;28;20514;-83
2024/02/01 08:00:45;;;;;;;50.92;47.15;;;;;;;;;;5081302;28;20819;-79
2024/02/01 08:03:32;;;;;;;50.03;45.93;;;;;;;;;;5080663;28;20495;-82
2024/02/01 08:08:45;;;;;;;51.97;47.90;;;;;;;;;;5075898;28;21129;-76
2024/02/01 08:11:17;;;;;;;51.67;48.13;;;;;;;;;;5078204;28;20492;-79
2024/02/01 08:13:48;;;;;;;52.00;46.75;;;;;;;;;;5081738;28;20449;-84
2024/02/01 08:16:17;;;;;;;52.40;48.53;;;;;;;;;;5081867;28;20296;-85
2024/02/01 08:18:46;;;;;;;48.33;44.63;;;;;;;;;;5082222;28;20416;-85
2024/02/01 08:21:32;;;;;;;48.80;44.87;;;;;;;;;;5151910;27;20616;-77
2024/02/01 08:23:59;;;;;;;47.90;44.43;;;;;;;;;;5149951;27;20515;-78
2024/02/01 08:26:26;;;;;;;47.83;44.13;;;;;;;;;;5152706;27;20454;-78
2024/02/01 08:28:53;;;;;;;46.73;43.50;;;;;;;;;;5152874;27;20421;-79
2024/02/01 08:31:20;;;;;;;47.93;43.63;;;;;;;;;;5135277;27;21117;-81
2024/02/01 08:33:47;;;;;;;45.90;42.83;;;;;;;;;;5137617;28;20479;-79
2024/02/01 08:36:20;;;;;;;50.23;45.80;;;;;;;;;;5131720;28;20448;-78
2024/02/01 08:38:48;;;;;;;49.83;45.43;;;;;;;;;;5136113;27;20456;-81
2024/02/01 08:41:15;;;;;;;43.60;39.77;;;;;;;;;;5137242;28;20487;-80
2024/02/01 08:43:45;;;;;;;44.47;40.53;;;;;;;;;;5137058;28;20492;-80
2024/02/01 08:46:12;;;;;;;42.90;38.90;;;;;;;;;;5135976;28;20453;-81
2024/02/01 08:48:41;;;;;;;42.08;38.47;;;;;;;;;;5135939;27;20674;-86
2024/02/01 08:51:09;;;;;;;41.53;38.43;;;;;;;;;;5134305;27;20643;-81
2024/02/01 08:53:42;;;;;;;44.03;39.93;;;;;;;;;;5138911;28;20455;-84
2024/02/01 08:56:12;;;;;;;42.10;38.43;;;;;;;;;;5132089;28;20434;-78
2024/02/01 08:58:41;;;;;;;41.33;36.97;;;;;;;;;;5123648;28;20468;-78
2024/02/01 09:01:22;;;;;;;37.33;33.30;;;;;;;;;;5112234;28;20285;-80
2024/02/01 09:03:50;;;;;;;36.15;30.25;;;;;;;;;;5117492;28;20441;-80
2024/02/01 09:06:18;;;;;;;29.40;26.67;;;;;;;;;;5114384;28;20569;-81
2024/02/01 09:08:46;;;;;;;36.83;26.50;;;;;;;;;;5114935;28;20462;-78
2024/02/01 09:11:15;;;;;;;26.23;23.97;;;;;;;;;;5110194;28;20473;-77
2024/02/01 09:13:44;;;;;;;28.87;25.97;;;;;;;;;;5126835;28;20469;-75
2024/02/01 09:16:11;;;;;;;30.17;25.53;;;;;;;;;;5126827;28;20434;-76
2024/02/01 09:18:40;;;;;;;32.67;25.40;;;;;;;;;;5126373;27;20414;-75
2024/02/01 09:21:08;;;;;;;25.03;23.43;;;;;;;;;;5127906;27;20461;-76
2024/02/01 09:23:35;;;;;;;28.83;25.03;;;;;;;;;;5127724;28;20451;-75
2024/02/01 09:26:03;;;;;;;29.93;25.20;;;;;;;;;;5127758;28;20425;-77
2024/02/01 09:28:31;;;;;;;26.48;24.17;;;;;;;;;;5127654;28;20457;-76
2024/02/01 09:30:59;;;;;;;28.40;23.90;;;;;;;;;;5124207;27;20237;-75
2024/02/01 09:33:27;;;;;;;28.47;24.77;;;;;;;;;;5113837;28;20802;-76
2024/02/01 09:35:56;;;;;;;31.40;23.80;;;;;;;;;;5114016;28;20444;-77
2024/02/01 09:38:23;;;;;;;25.17;22.67;;;;;;;;;;5113688;28;20454;-76
2024/02/01 09:40:50;;;;;;;26.27;23.53;;;;;;;;;;5113624;28;20557;-76
2024/02/01 09:43:20;;;;;;;28.30;24.43;;;;;;;;;;5114036;28;20437;-76
2024/02/01 09:45:49;;;;;;;29.37;26.53;;;;;;;;;;5113760;28;20500;-75
2024/02/01 09:48:19;;;;;;;26.53;22.50;;;;;;;;;;5113529;28;20459;-76
2024/02/01 09:50:51;;;;;;;26.17;23.35;;;;;;;;;;5113262;28;20456;-75
2024/02/01 09:53:21;;;;;;;31.90;22.10;;;;;;;;;;5113792;28;20202;-76
2024/02/01 09:55:48;;;;;;;29.98;22.48;;;;;;;;;;5114215;28;20426;-76
2024/02/01 09:58:15;;;;;;;24.13;21.83;;;;;;;;;;5113240;28;20263;-76
2024/02/01 10:00:42;;;;;;;25.00;22.50;;;;;;;;;;5113850;28;20518;-76
2024/02/01 10:03:12;;;;;;;31.27;21.40;;;;;;;;;;5113166;28;20448;-75
2024/02/01 10:05:40;;;;;;;24.17;22.00;;;;;;;;;;5113575;28;20443;-75
2024/02/01 10:08:10;;;;;;;24.03;21.63;;;;;;;;;;5112917;28;20989;-75
2024/02/01 10:10:39;;;;;;;22.70;20.40;;;;;;;;;;5113451;28;20467;-76
2024/02/01 10:13:07;;;;;;;23.50;21.00;;;;;;;;;;5113266;28;20444;-76
2024/02/01 10:15:36;;;;;;;25.47;20.53;;;;;;;;;;5112840;28;20423;-76
2024/02/01 10:18:06;;;;;;;25.40;22.60;;;;;;;;;;5110854;28;20448;-76
2024/02/01 10:20:36;;;;;;;23.33;21.10;;;;;;;;;;5112258;28;20843;-75
2024/02/01 10:23:04;;;;;;;23.27;21.03;;;;;;;;;;5112765;28;20444;-76
2024/02/01 10:25:38;;;;;;;22.90;20.70;;;;;;;;;;5113101;28;20508;-76
2024/02/01 10:28:07;;;;;;;25.23;22.60;;;;;;;;;;5112289;28;20447;-75
2024/02/01 10:30:36;;;;;;;29.93;23.00;;;;;;;;;;5112794;28;20499;-76
2024/02/01 10:33:03;;;;;;;24.73;22.00;;;;;;;;;;5112717;28;20448;-76
2024/02/01 10:35:32;;;;;;;24.30;20.93;;;;;;;;;;5112417;28;20940;-75
2024/02/01 10:38:11;;;;;;;34.43;21.37;;;;;;;;;;5111525;28;20476;-75
2024/02/01 10:40:42;;;;;;;24.57;21.37;;;;;;;;;;5112145;28;20458;-76
2024/02/01 10:43:10;;;;;;;27.30;21.97;;;;;;;;;;5111620;28;21139;-76
2024/02/01 10:45:39;;;;;;;22.43;20.53;;;;;;;;;;5112692;28;20443;-75
2024/02/01 10:48:10;;;;;;;23.70;21.20;;;;;;;;;;5111574;28;20497;-75
2024/02/01 10:50:41;;;;;;;27.10;20.47;;;;;;;;;;5112228;28;20460;-75
2024/02/01 10:53:11;;;;;;;21.47;19.80;;;;;;;;;;5112797;28;20497;-75
2024/02/01 10:55:40;;;;;;;27.73;22.43;;;;;;;;;;5112362;28;20522;-75
2024/02/01 10:58:12;;;;;;;23.83;19.07;;;;;;;;;;5111585;28;20444;-75
2024/02/01 11:00:41;;;;;;;24.40;19.53;;;;;;;;;;5112060;28;20488;-75
2024/02/01 11:03:11;;;;;;;27.00;20.00;;;;;;;;;;5111950;28;20436;-74
2024/02/01 11:05:41;;;;;;;22.10;19.60;;;;;;;;;;5112406;28;20456;-74
2024/02/01 11:08:18;;;;;;;24.73;20.67;;;;;;;;;;5111468;28;20428;-75
2024/02/01 11:10:54;;;;;;;23.37;20.63;;;;;;;;;;5112018;28;20464;-76
2024/02/01 11:13:31;;;;;;;27.77;19.60;;;;;;;;;;5112376;28;20940;-75
2024/02/01 11:15:58;;;;;;;23.43;19.97;;;;;;;;;;5112041;28;20443;-75
2024/02/01 11:18:26;;;;;;;21.30;19.63;;;;;;;;;;5110561;28;20448;-75
2024/02/01 11:20:57;;;;;;;23.53;19.00;;;;;;;;;;5111543;28;20493;-75
2024/02/01 11:23:26;;;;;;;33.33;21.90;;;;;;;;;;5112025;28;20436;-74
2024/02/01 11:25:59;;;;;;;27.60;20.90;;;;;;;;;;5112097;28;20451;-75
2024/02/01 11:28:28;;;;;;;23.07;20.93;;;;;;;;;;5111433;28;20419;-76
2024/02/01 11:30:56;;;;;;;23.50;19.90;;;;;;;;;;5111540;28;20439;-75
2024/02/01 11:33:27;;;;;;;26.20;20.97;;;;;;;;;;5111971;28;20454;-74
2024/02/01 11:35:56;;;;;;;26.23;21.03;;;;;;;;;;5111863;28;20451;-75
2024/02/01 11:38:23;;;;;;;22.43;20.27;;;;;;;;;;5111830;28;20425;-76
2024/02/01 11:40:51;;;;;;;22.37;20.10;;;;;;;;;;5112611;28;20484;-76
2024/02/01 11:43:19;;;;;;;23.27;20.97;;;;;;;;;;5112211;28;20448;-75
2024/02/01 11:45:53;;;;;;;34.70;20.90;;;;;;;;;;5111743;28;20564;-76
2024/02/01 11:48:22;;;;;;;27.30;20.63;;;;;;;;;;5110970;28;20443;-75
2024/02/01 11:50:53;;;;;;;21.37;19.53;;;;;;;;;;5111697;28;20464;-75
2024/02/01 11:53:21;;;;;;;20.87;19.13;;;;;;;;;;5111403;28;20426;-74
2024/02/01 11:55:48;;;;;;;21.80;18.63;;;;;;;;;;5111355;28;20448;-74
2024/02/01 11:58:22;;;;;;;22.57;19.93;;;;;;;;;;5110211;28;20441;-74
2024/02/01 12:00:55;;;;;;;20.20;18.57;;;;;;;;;;5111398;28;21002;-74
2024/02/01 12:03:23;;;;;;;26.93;21.27;;;;;;;;;;5111119;28;21182;-75
2024/02/01 12:05:50;;;;;;;23.63;21.13;;;;;;;;;;5109670;28;20460;-74
2024/02/01 12:08:19;;;;;;;23.40;20.10;;;;;;;;;;5110521;28;20444;-74
2024/02/01 12:10:49;;;;;;;20.83;18.90;;;;;;;;;;5109541;28;20472;-75
2024/02/01 12:13:16;;;;;;;22.93;20.13;;;;;;;;;;5111247;28;20459;-74
2024/02/01 12:15:47;;;;;;;21.10;19.40;;;;;;;;;;5111103;28;20450;-76
2024/02/01 12:18:15;;;;;;;22.13;20.20;;;;;;;;;;5110892;28;20473;-75
2024/02/01 12:20:45;;;;;;;23.13;20.77;;;;;;;;;;5110487;28;20474;-76
2024/02/01 12:23:14;;;;;;;23.30;20.67;;;;;;;;;;5111382;28;20436;-75
2024/02/01 12:25:45;;;;;;;23.47;20.53;;;;;;;;;;5110936;28;20456;-75
2024/02/01 12:28:14;;;;;;;21.70;19.57;;;;;;;;;;5109380;28;20458;-75
2024/02/01 12:30:44;;;;;;;21.03;19.00;;;;;;;;;;5110592;28;20469;-75
2024/02/01 12:33:20;;;;;;;21.53;19.40;;;;;;;;;;5110822;28;20489;-74
2024/02/01 12:35:48;;;;;;;20.90;18.77;;;;;;;;;;5110314;28;20422;-75
2024/02/01 12:38:16;;;;;;;25.03;18.83;;;;;;;;;;5110196;28;20480;-75
2024/02/01 12:40:46;;;;;;;21.23;19.43;;;;;;;;;;5110511;28;20465;-75
2024/02/01 12:43:13;;;;;;;21.90;19.83;;;;;;;;;;5110329;28;20959;-76
2024/02/01 12:45:46;;;;;;;21.67;19.27;;;;;;;;;;5110150;28;20882;-75
2024/02/01 12:48:26;;;;;;;25.90;20.27;;;;;;;;;;5109841;28;20440;-74
2024/02/01 12:50:53;;;;;;;20.40;18.90;;;;;;;;;;5110379;28;20925;-75
2024/02/01 12:53:21;;;;;;;23.10;21.17;;;;;;;;;;5110835;28;20543;-75
2024/02/01 12:55:49;;;;;;;21.37;19.30;;;;;;;;;;5110255;28;20471;-75
2024/02/01 12:58:18;;;;;;;20.97;19.27;;;;;;;;;;5110155;28;20452;-76
2024/02/01 13:00:48;;;;;;;26.20;21.40;;;;;;;;;;5110215;28;20464;-75
2024/02/01 13:03:19;;;;;;;23.33;21.20;;;;;;;;;;5109819;28;20452;-75
2024/02/01 13:05:47;;;;;;;24.40;20.70;;;;;;;;;;5110350;28;20435;-76
2024/02/01 13:08:15;;;;;;;21.97;19.93;;;;;;;;;;5113737;28;20779;-76
2024/02/01 13:10:44;;;;;;;23.20;20.97;;;;;;;;;;5112656;28;20464;-76
2024/02/01 13:13:12;;;;;;;22.47;20.60;;;;;;;;;;5114652;28;20443;-76
2024/02/01 13:15:39;;;;;;;22.47;20.53;;;;;;;;;;5114316;28;20436;-74
2024/02/01 13:18:11;;;;;;;21.10;19.60;;;;;;;;;;5113915;28;20458;-76
2024/02/01 13:20:57;;;;;;;21.07;19.40;;;;;;;;;;5113559;28;21078;-75
2024/02/01 13:23:25;;;;;;;21.80;20.50;;;;;;;;;;5113965;28;20809;-75
2024/02/01 13:25:55;;;;;;;21.77;19.77;;;;;;;;;;5114020;28;20451;-75
2024/02/01 13:28:23;;;;;;;22.73;20.57;;;;;;;;;;5113965;28;20440;-74
2024/02/01 13:30:51;;;;;;;22.80;20.53;;;;;;;;;;5114014;28;20464;-75
2024/02/01 13:33:18;;;;;;;20.90;19.37;;;;;;;;;;5113697;28;20936;-78
2024/02/01 13:35:46;;;;;;;21.57;19.50;;;;;;;;;;5113514;28;20440;-77
2024/02/01 13:38:13;;;;;;;22.07;19.93;;;;;;;;;;5113109;28;20812;-77
2024/02/01 13:40:43;;;;;;;22.03;20.17;;;;;;;;;;5114578;28;20436;-78
2024/02/01 13:43:11;;;;;;;23.03;21.13;;;;;;;;;;5115282;28;20395;-77
2024/02/01 13:45:39;;;;;;;23.50;20.30;;;;;;;;;;5115259;28;20423;-77
2024/02/01 13:48:11;;;;;;;21.77;19.97;;;;;;;;;;5112684;28;20430;-77
2024/02/01 13:50:40;;;;;;;22.93;20.50;;;;;;;;;;5113476;28;20472;-77
2024/02/01 13:53:08;;;;;;;22.60;20.30;;;;;;;;;;5113679;28;20451;-77
2024/02/01 13:55:36;;;;;;;22.20;20.20;;;;;;;;;;5113419;28;20925;-77
2024/02/01 13:58:04;;;;;;;21.07;19.47;;;;;;;;;;5112647;28;20455;-75
2024/02/01 14:00:31;;;;;;;22.20;20.40;;;;;;;;;;5113515;28;20975;-75
2024/02/01 14:02:59;;;;;;;20.50;18.70;;;;;;;;;;5113280;28;21308;-75
2024/02/01 14:05:26;;;;;;;22.33;20.70;;;;;;;;;;5112885;28;21008;-75
2024/02/01 14:07:54;;;;;;;20.77;19.03;;;;;;;;;;5112723;28;20447;-76
2024/02/01 14:10:22;;;;;;;22.63;20.97;;;;;;;;;;5112247;28;20467;-76
2024/02/01 14:12:51;;;;;;;25.90;22.30;;;;;;;;;;5113340;28;20769;-75
2024/02/01 14:15:19;;;;;;;29.07;21.40;;;;;;;;;;5112721;28;20443;-77
2024/02/01 14:17:47;;;;;;;24.73;21.33;;;;;;;;;;5111999;28;20496;-74
2024/02/01 14:20:16;;;;;;;22.57;20.43;;;;;;;;;;5112173;28;21064;-75
2024/02/01 14:22:43;;;;;;;23.23;20.80;;;;;;;;;;5112828;28;20559;-75
2024/02/01 14:25:11;;;;;;;22.23;20.37;;;;;;;;;;5112134;28;20447;-75
2024/02/01 14:27:39;;;;;;;22.90;21.17;;;;;;;;;;5112513;28;20843;-76
2024/02/01 14:30:09;;;;;;;21.93;20.17;;;;;;;;;;5112635;28;20456;-76
2024/02/01 14:32:39;;;;;;;23.20;21.03;;;;;;;;;;5113181;28;20887;-76
2024/02/01 14:35:07;;;;;;;21.83;20.13;;;;;;;;;;5111491;28;20441;-76
2024/02/01 14:37:34;;;;;;;23.27;21.20;;;;;;;;;;5112206;28;20503;-75
2024/02/01 14:40:02;;;;;;;26.53;22.57;;;;;;;;;;5112749;28;20931;-75
2024/02/01 14:42:29;;;;;;;23.23;21.27;;;;;;;;;;5112800;28;20495;-76
2024/02/01 14:44:56;;;;;;;24.90;22.37;;;;;;;;;;5112766;28;20766;-75
2024/02/01 14:47:24;;;;;;;23.23;21.30;;;;;;;;;;5112357;28;20505;-75
2024/02/01 14:49:52;;;;;;;25.77;21.00;;;;;;;;;;5112560;28;20468;-75
2024/02/01 14:52:19;;;;;;;24.33;22.00;;;;;;;;;;5112665;28;20477;-75
2024/02/01 14:54:48;;;;;;;22.33;20.43;;;;;;;;;;5113043;28;20521;-76
2024/02/01 14:57:15;;;;;;;21.40;19.90;;;;;;;;;;5111686;28;20858;-76
2024/02/01 14:59:42;;;;;;;23.47;21.17;;;;;;;;;;5112816;28;20516;-76
2024/02/01 15:02:09;;;;;;;23.03;21.00;;;;;;;;;;5112649;28;20533;-75
2024/02/01 15:04:37;;;;;;;23.83;21.80;;;;;;;;;;5112543;28;20447;-74
2024/02/01 15:07:06;;;;;;;23.67;20.60;;;;;;;;;;5111208;28;20920;-76
2024/02/01 15:09:36;;;;;;;22.60;20.57;;;;;;;;;;5112258;28;20550;-76